Time;durP1;ratioP1;P1;durP2;ratioP2;P2;SDS_P1;SDS_P2;PMS_P1;PMS_P2;Temp;Humidity;BMP_temperature;BMP_pressure;BME280_temperature;BME280_humidity;BME280_pressure;Samples;Min_cycle;Max_cycle;Signal;HPM_P1;HPM_P2
2022/10/07 04:01:34;;;;;;;3.45;2.33;;;;;;;9.54;80.46;102553.19;5064586;27;20379;-81
2022/10/07 04:04:00;;;;;;;5.68;3.05;;;;;;;9.66;80.12;102552.16;5033272;28;20121;-81
2022/10/07 04:06:26;;;;;;;6.25;3.20;;;;;;;9.84;79.67;102546.72;5066479;28;20029;-81
2022/10/07 04:12:04;;;;;;;16.83;3.93;;;;;;;10.01;77.22;102538.69;5047584;28;20128;-83
2022/10/07 04:14:29;;;;;;;5.25;3.00;;;;;;;10.00;76.90;102537.84;5029779;28;20997;-83
2022/10/07 04:16:56;;;;;;;3.63;2.28;;;;;;;10.18;76.21;102561.69;5046568;28;20494;-86
2022/10/07 04:19:21;;;;;;;5.32;2.60;;;;;;;10.18;76.16;102533.25;5028553;28;20499;-86
2022/10/07 04:21:47;;;;;;;4.45;2.72;;;;;;;10.19;75.80;102540.13;5029458;28;20075;-85
2022/10/07 04:24:12;;;;;;;5.38;2.72;;;;;;;10.19;75.48;102547.88;5046217;28;20072;-82
2022/10/07 04:26:38;;;;;;;5.72;2.88;;;;;;;10.26;75.30;102549.53;5046158;28;20051;-87
2022/10/07 04:29:03;;;;;;;5.20;3.10;;;;;;;10.30;74.84;102556.34;5029707;28;20040;-81
2022/10/07 04:31:29;;;;;;;4.22;2.95;;;;;;;10.40;74.58;102568.25;5046541;28;20402;-89
2022/10/07 04:33:54;;;;;;;4.00;2.60;;;;;;;10.41;74.16;102563.91;5015856;28;20051;-94
2022/10/07 04:36:20;;;;;;;5.03;3.10;;;;;;;10.30;74.26;102551.16;5014605;28;20098;-85
2022/10/07 04:38:51;;;;;;;4.07;2.58;;;;;;;10.31;74.44;102558.06;5011649;28;20054;-90
2022/10/07 04:41:17;;;;;;;4.07;2.57;;;;;;;10.42;74.06;102575.97;5007795;28;20033;-85
2022/10/07 04:43:42;;;;;;;8.18;4.22;;;;;;;10.36;74.24;102564.00;5024998;28;20022;-83
2022/10/07 04:46:12;;;;;;;13.30;5.28;;;;;;;10.44;73.47;102572.50;5025389;28;20036;-83
2022/10/07 04:48:42;;;;;;;10.00;5.25;;;;;;;10.43;73.80;102578.56;5026419;28;20041;-91
2022/10/07 04:51:08;;;;;;;7.20;3.75;;;;;;;10.53;73.59;102580.09;5018907;28;20508;-82
2022/10/07 04:53:36;;;;;;;9.80;4.15;;;;;;;10.43;73.22;102572.53;5005597;28;20033;-93
2022/10/07 04:56:02;;;;;;;10.00;3.72;;;;;;;10.29;74.27;102572.75;5005076;28;20030;-85
2022/10/07 04:58:30;;;;;;;6.63;4.25;;;;;;;10.29;74.65;102588.28;5021109;28;20026;-93
2022/10/07 05:00:57;;;;;;;5.63;3.22;;;;;;;10.28;74.51;102583.97;4998531;28;20056;-92
2022/10/07 05:03:48;;;;;;;9.13;3.92;;;;;;;10.32;74.61;102583.03;4993038;28;20029;-94
2022/10/07 05:06:15;;;;;;;7.97;5.25;;;;;;;9.55;76.92;102592.81;5013491;28;20128;-95
2022/10/07 05:08:41;;;;;;;14.07;4.35;;;;;;;9.22;79.25;102587.19;4993877;28;20411;-92
2022/10/07 05:11:06;;;;;;;8.77;4.35;;;;;;;9.44;78.55;102592.97;5006378;28;20034;-94
2022/10/07 05:13:33;;;;;;;6.75;3.53;;;;;;;9.58;77.78;102578.09;4993075;28;20026;-88
2022/10/07 05:15:59;;;;;;;5.93;3.90;;;;;;;9.34;77.78;102581.88;4996407;28;20030;-90
2022/10/07 05:18:26;;;;;;;7.15;3.70;;;;;;;9.56;77.97;102586.78;4987949;28;20022;-87
2022/10/07 05:20:51;;;;;;;24.45;9.85;;;;;;;9.56;77.40;102602.28;4984928;28;20018;-89
2022/10/07 05:23:19;;;;;;;12.00;7.20;;;;;;;9.44;78.51;102598.97;4993748;28;20089;-80
2022/10/07 05:25:44;;;;;;;12.52;6.47;;;;;;;9.82;76.96;102602.75;4993403;28;20110;-96
2022/10/07 05:28:10;;;;;;;8.52;5.20;;;;;;;9.59;77.55;102607.38;4984986;28;20061;-91
2022/10/07 05:30:36;;;;;;;5.25;3.20;;;;;;;9.73;77.55;102597.69;4976330;28;20521;-89
2022/10/07 05:33:02;;;;;;;4.05;2.80;;;;;;;10.03;75.72;102601.59;5006665;28;20042;-95
2022/10/07 05:35:28;;;;;;;4.82;2.78;;;;;;;9.70;77.19;102605.50;4992201;28;20036;-85
2022/10/07 05:37:53;;;;;;;6.38;2.75;;;;;;;9.87;76.57;102598.38;5009281;28;20041;-86
2022/10/07 05:40:19;;;;;;;5.25;2.10;;;;;;;10.25;76.46;102607.31;4999999;28;20061;-91
2022/10/07 05:42:48;;;;;;;5.38;3.28;;;;;;;10.00;75.47;102594.72;4997320;28;20027;-95
2022/10/07 05:45:18;;;;;;;3.63;2.75;;;;;;;10.22;76.23;102612.53;5008786;28;20121;-94
2022/10/07 05:47:43;;;;;;;5.80;3.20;;;;;;;10.28;74.97;102587.41;4975215;28;20056;-92
2022/10/07 05:50:09;;;;;;;3.55;2.42;;;;;;;10.16;75.74;102604.84;4969031;28;20419;-85
2022/10/07 05:52:35;;;;;;;43.92;21.67;;;;;;;10.47;76.30;102600.91;4998423;28;20022;-88
2022/10/07 05:55:00;;;;;;;39.67;17.48;;;;;;;10.85;74.61;102627.84;4975862;28;20030;-89
2022/10/07 05:57:26;;;;;;;7.22;3.90;;;;;;;10.68;74.53;102625.56;4990807;28;20113;-89
2022/10/07 05:59:51;;;;;;;5.20;2.92;;;;;;;11.01;75.23;102633.59;4975299;28;20112;-91
2022/10/07 06:02:17;;;;;;;4.40;2.42;;;;;;;11.22;73.17;102622.84;4975634;28;20034;-85
2022/10/07 06:04:47;;;;;;;6.07;3.85;;;;;;;10.95;73.62;102629.38;4997881;28;20057;-96
2022/10/07 06:07:13;;;;;;;6.28;2.65;;;;;;;11.34;73.35;102642.47;4991309;28;20026;-88
2022/10/07 06:15:08;;;;;;;5.15;3.45;;;;;;;11.48;71.39;102625.72;5010106;28;20041;-94
2022/10/07 06:17:43;;;;;;;7.50;3.63;;;;;;;11.67;71.52;102640.91;4980264;28;20041;-93
2022/10/07 06:20:09;;;;;;;7.63;2.70;;;;;;;11.41;73.12;102638.88;4990942;28;20035;-90
2022/10/07 06:22:35;;;;;;;5.78;3.38;;;;;;;11.66;72.36;102654.75;4981760;28;20029;-90
2022/10/07 06:25:01;;;;;;;5.97;3.17;;;;;;;11.71;72.27;102630.44;4966229;28;20141;-86
2022/10/07 06:27:27;;;;;;;6.22;3.45;;;;;;;11.59;73.68;102650.56;4977926;28;20043;-91
2022/10/07 06:29:53;;;;;;;5.88;2.97;;;;;;;11.84;73.04;102654.38;4985890;28;21195;-86
2022/10/07 06:32:18;;;;;;;6.78;3.60;;;;;;;12.02;72.22;102655.72;4979221;28;20408;-90
2022/10/07 06:34:45;;;;;;;5.38;3.45;;;;;;;11.75;74.21;102645.03;4970891;28;20035;-93
2022/10/07 06:37:11;;;;;;;5.30;3.25;;;;;;;12.03;72.85;102644.47;4965112;28;20038;-92
2022/10/07 06:39:38;;;;;;;5.35;2.83;;;;;;;12.29;72.44;102646.44;4962873;28;20050;-92
2022/10/07 06:42:03;;;;;;;6.47;3.70;;;;;;;12.10;73.48;102635.66;4999635;28;20034;-92
2022/10/07 06:44:30;;;;;;;4.25;2.78;;;;;;;12.51;72.65;102641.59;4999870;28;20137;-94
2022/10/07 06:46:55;;;;;;;5.95;3.15;;;;;;;12.79;71.44;102645.19;4978575;28;20026;-91
2022/10/07 06:49:21;;;;;;;5.07;3.17;;;;;;;12.61;71.94;102654.28;4960764;28;20088;-87
2022/10/07 06:51:46;;;;;;;13.45;7.43;;;;;;;12.98;72.39;102648.16;4962154;28;20033;-89
2022/10/07 06:54:13;;;;;;;7.85;4.35;;;;;;;13.13;70.81;102637.31;4995210;28;20042;-92
2022/10/07 06:56:38;;;;;;;7.32;4.10;;;;;;;13.20;69.46;102643.25;4976455;28;20947;-92
2022/10/07 06:59:09;;;;;;;21.88;13.70;;;;;;;13.51;69.75;102660.56;4963915;28;20035;-95
2022/10/07 07:01:35;;;;;;;6.15;3.40;;;;;;;13.49;68.00;102625.06;4971782;28;20042;-90
2022/10/07 07:04:00;;;;;;;8.30;5.15;;;;;;;13.60;68.38;102650.75;4968460;28;20034;-88
2022/10/07 07:06:26;;;;;;;7.85;5.18;;;;;;;13.58;69.04;102662.97;5002015;28;20056;-86
2022/10/07 07:08:54;;;;;;;8.30;4.35;;;;;;;13.76;68.25;102654.63;5009831;28;20510;-87
2022/10/07 07:11:35;;;;;;;7.75;4.53;;;;;;;13.99;68.48;102663.47;4980962;28;20097;-92
2022/10/07 07:14:02;;;;;;;5.93;4.07;;;;;;;14.03;67.65;102650.28;4982001;28;20057;-88
2022/10/07 07:16:28;;;;;;;7.15;4.07;;;;;;;14.16;67.34;102653.38;4961463;28;20042;-92
2022/10/07 07:18:55;;;;;;;8.48;4.45;;;;;;;14.36;67.03;102655.34;4965978;28;20120;-88
2022/10/07 07:21:20;;;;;;;9.93;5.07;;;;;;;14.35;65.95;102631.06;4958801;28;20030;-88
2022/10/07 07:23:46;;;;;;;18.35;5.28;;;;;;;14.49;65.73;102633.22;4977338;28;20049;-91
2022/10/07 07:26:12;;;;;;;8.93;4.80;;;;;;;14.54;64.44;102633.91;4979388;28;20620;-89
2022/10/07 07:28:38;;;;;;;13.45;4.90;;;;;;;14.73;65.54;102623.72;4961030;28;20125;-88
2022/10/07 07:31:11;;;;;;;14.90;6.90;;;;;;;15.05;64.24;102634.78;4960428;28;20045;-85
2022/10/07 07:33:38;;;;;;;9.80;5.78;;;;;;;15.20;62.95;102634.22;4966313;28;20038;-90
2022/10/07 07:36:15;;;;;;;13.55;5.35;;;;;;;15.29;62.78;102639.09;4969158;28;20030;-85
2022/10/07 07:38:42;;;;;;;11.65;5.30;;;;;;;15.22;62.31;102619.38;4951366;28;20041;-86
2022/10/07 07:41:08;;;;;;;15.10;5.38;;;;;;;15.38;62.23;102632.69;4964355;28;20023;-91
2022/10/07 07:43:34;;;;;;;13.10;7.32;;;;;;;15.38;62.08;102611.84;4946845;28;20511;-90
2022/10/07 07:46:00;;;;;;;16.20;6.53;;;;;;;15.53;61.80;102608.63;4939465;28;20039;-93
2022/10/07 07:48:25;;;;;;;14.60;7.18;;;;;;;15.85;62.07;102630.06;4974601;28;20023;-94
2022/10/07 07:50:51;;;;;;;16.17;6.93;;;;;;;15.87;60.85;102625.63;4945450;28;20038;-93
2022/10/07 07:53:16;;;;;;;10.85;6.63;;;;;;;16.01;61.24;102641.59;4945473;28;20037;-91
2022/10/07 07:55:53;;;;;;;11.35;7.07;;;;;;;16.49;60.23;102630.91;4946587;28;20043;-90
2022/10/07 07:58:20;;;;;;;12.88;7.00;;;;;;;16.53;58.71;102640.34;4937985;28;20117;-86
2022/10/07 08:00:56;;;;;;;13.23;7.15;;;;;;;16.64;62.15;102634.66;4956840;28;21402;-86
2022/10/07 08:03:22;;;;;;;18.50;7.45;;;;;;;16.78;59.84;102626.25;4954907;28;20113;-88
2022/10/07 08:05:47;;;;;;;14.32;6.63;;;;;;;17.02;56.90;102656.56;4940856;28;20034;-92
2022/10/07 08:08:13;;;;;;;10.55;6.20;;;;;;;16.85;58.87;102638.13;4927698;28;20103;-86
2022/10/07 08:10:41;;;;;;;12.35;6.32;;;;;;;16.63;59.59;102640.78;4939656;28;20031;-87
2022/10/07 08:13:07;;;;;;;12.63;5.75;;;;;;;16.58;59.91;102629.69;4939274;28;20035;-87
2022/10/07 08:15:32;;;;;;;12.30;6.80;;;;;;;16.54;60.19;102635.97;4932785;28;20034;-90
2022/10/07 08:17:59;;;;;;;15.98;6.75;;;;;;;16.72;59.66;102631.75;4977943;28;20491;-85
2022/10/07 08:20:25;;;;;;;12.82;6.90;;;;;;;16.55;59.06;102635.88;4972849;28;20507;-94
2022/10/07 08:22:50;;;;;;;12.02;5.72;;;;;;;16.60;59.95;102628.69;4950052;28;20504;-86
2022/10/07 08:25:16;;;;;;;10.05;6.53;;;;;;;16.49;59.62;102624.84;4956081;28;20026;-88
2022/10/07 08:27:42;;;;;;;16.05;6.90;;;;;;;16.75;59.52;102631.63;4940024;28;20044;-95
2022/10/07 08:30:08;;;;;;;10.82;6.07;;;;;;;16.72;59.19;102630.00;4942133;28;20066;-92
2022/10/07 08:32:34;;;;;;;10.05;5.75;;;;;;;16.79;58.73;102617.47;4944478;28;20053;-84
2022/10/07 08:34:59;;;;;;;12.05;6.70;;;;;;;16.95;58.13;102628.13;4943529;28;20042;-88
2022/10/07 08:37:25;;;;;;;12.57;6.68;;;;;;;17.02;57.77;102627.81;4939594;28;20082;-85
2022/10/07 08:39:50;;;;;;;11.18;6.43;;;;;;;17.19;57.21;102627.03;4946062;28;20050;-93
2022/10/07 08:42:44;;;;;;;17.15;6.85;;;;;;;17.23;56.74;102623.38;4952631;28;20626;-94
2022/10/07 08:45:14;;;;;;;11.13;6.43;;;;;;;17.18;57.92;102617.47;4949631;28;20045;-87
2022/10/07 08:47:44;;;;;;;11.18;6.35;;;;;;;17.29;56.85;102612.59;4976971;28;20121;-96
2022/10/07 08:50:21;;;;;;;10.65;6.80;;;;;;;17.58;56.74;102621.72;4938160;28;20027;-88
2022/10/07 08:53:00;;;;;;;13.15;6.22;;;;;;;17.53;56.53;102597.56;4967999;28;20041;-92
2022/10/07 08:55:30;;;;;;;13.40;5.68;;;;;;;17.58;56.95;102623.50;4930728;28;20015;-89
2022/10/07 08:58:18;;;;;;;11.35;6.35;;;;;;;17.81;56.66;102617.25;4963180;28;20035;-83
2022/10/07 09:01:14;;;;;;;10.77;6.05;;;;;;;17.64;56.29;102607.53;4964823;28;20074;-90
2022/10/07 09:03:58;;;;;;;11.32;5.90;;;;;;;17.71;56.66;102611.59;4993109;28;20404;-91
2022/10/07 09:06:50;;;;;;;15.43;6.15;;;;;;;17.91;56.80;102573.97;4954086;28;20230;-89
2022/10/07 09:09:19;;;;;;;8.82;5.32;;;;;;;18.06;55.16;102586.31;4972979;28;20042;-94
2022/10/07 09:11:45;;;;;;;9.18;5.20;;;;;;;18.21;55.86;102598.66;4958373;28;20031;-85
2022/10/07 09:14:38;;;;;;;10.13;5.45;;;;;;;18.41;55.50;102581.94;4954473;28;20042;-92
2022/10/07 09:17:12;;;;;;;11.10;5.80;;;;;;;18.39;54.82;102573.31;4950041;28;20409;-90
2022/10/07 09:19:43;;;;;;;12.32;6.30;;;;;;;18.50;54.15;102581.47;4955217;28;20158;-91
2022/10/07 09:22:10;;;;;;;10.25;5.70;;;;;;;18.55;54.51;102561.09;4954598;28;20494;-94
2022/10/07 09:24:36;;;;;;;11.35;5.80;;;;;;;18.60;53.53;102537.28;4967953;28;20066;-89
2022/10/07 09:27:10;;;;;;;12.38;6.05;;;;;;;18.87;54.17;102555.94;4969767;28;20031;-87
2022/10/07 09:29:35;;;;;;;10.70;5.63;;;;;;;18.97;53.30;102566.78;4955910;28;20034;-94
2022/10/07 09:32:01;;;;;;;14.35;6.00;;;;;;;18.92;55.57;102544.31;4942039;28;20027;-93
2022/10/07 09:34:28;;;;;;;11.02;5.80;;;;;;;19.23;52.77;102557.53;4957570;28;20042;-93
2022/10/07 09:37:21;;;;;;;9.40;6.07;;;;;;;19.34;53.49;102566.50;4984884;28;20027;-88
2022/10/07 09:39:49;;;;;;;9.95;5.95;;;;;;;19.45;51.75;102552.78;4981423;28;20116;-90
2022/10/07 09:42:34;;;;;;;13.18;6.38;;;;;;;19.60;51.59;102546.72;4995634;28;20042;-83
2022/10/07 09:45:01;;;;;;;9.27;5.45;;;;;;;19.76;50.33;102554.53;4996237;28;20456;-92
2022/10/07 09:47:31;;;;;;;10.70;5.65;;;;;;;19.73;50.90;102552.94;4961610;28;20033;-89
2022/10/07 09:49:58;;;;;;;11.32;5.50;;;;;;;19.79;54.62;102556.16;4986885;28;20038;-85
2022/10/07 09:52:28;;;;;;;9.43;5.22;;;;;;;19.97;53.06;102550.72;4961264;28;20509;-85
2022/10/07 09:54:55;;;;;;;10.07;5.28;;;;;;;20.10;50.42;102537.69;4953557;28;20034;-91
2022/10/07 09:57:32;;;;;;;12.52;6.47;;;;;;;20.15;52.71;102540.03;4977603;28;20030;-92
2022/10/07 10:00:21;;;;;;;10.50;5.68;;;;;;;20.37;52.15;102540.47;4974743;28;20100;-85
2022/10/07 10:03:01;;;;;;;18.90;10.20;;;;;;;20.57;49.64;102539.31;4992274;28;20046;-93
2022/10/07 10:05:29;;;;;;;24.73;13.70;;;;;;;20.46;48.77;102541.75;4981611;28;20089;-90
2022/10/07 10:08:23;;;;;;;15.20;7.70;;;;;;;20.43;48.20;102526.13;4979509;28;20038;-86
2022/10/07 10:10:51;;;;;;;12.68;6.43;;;;;;;20.47;47.65;102523.25;5009870;28;20034;-89
2022/10/07 10:13:30;;;;;;;14.73;6.13;;;;;;;20.58;47.32;102536.56;4991830;28;20038;-94
2022/10/07 10:15:56;;;;;;;11.50;6.30;;;;;;;20.56;47.11;102527.94;4992137;28;20027;-91
2022/10/07 10:18:32;;;;;;;10.73;6.45;;;;;;;20.66;48.02;102527.38;4966214;28;20037;-89
2022/10/07 10:21:19;;;;;;;12.05;5.85;;;;;;;20.68;47.94;102518.44;4979256;28;20030;-85
2022/10/07 10:23:48;;;;;;;13.38;6.22;;;;;;;20.76;48.15;102517.97;4989177;28;20098;-89
2022/10/07 10:26:54;;;;;;;15.15;6.70;;;;;;;20.88;47.80;102518.06;4994521;28;20527;-96
2022/10/07 10:29:29;;;;;;;11.98;6.43;;;;;;;20.87;47.97;102512.88;4996572;28;20038;-94
2022/10/07 10:32:00;;;;;;;53.13;26.05;;;;;;;20.78;48.08;102490.63;5010929;28;20031;-93
2022/10/07 10:35:03;;;;;;;16.23;7.77;;;;;;;21.06;47.54;102509.94;4991310;28;20038;-88
2022/10/07 10:37:28;;;;;;;10.30;5.82;;;;;;;21.08;46.61;102502.78;4989732;28;20088;-93
2022/10/07 10:40:25;;;;;;;12.75;6.05;;;;;;;21.22;45.73;102504.53;4988616;28;20030;-89
2022/10/07 10:43:12;;;;;;;10.65;6.47;;;;;;;21.07;46.31;102475.63;4988117;28;20037;-87
2022/10/07 10:45:50;;;;;;;10.43;5.78;;;;;;;21.23;46.64;102493.91;4974020;28;20039;-86
2022/10/07 10:48:40;;;;;;;14.10;7.22;;;;;;;21.32;43.78;102479.34;4964810;28;20096;-83
2022/10/07 10:51:33;;;;;;;10.48;5.60;;;;;;;21.48;43.57;102486.16;5004569;28;20026;-88
2022/10/07 10:54:23;;;;;;;9.45;5.20;;;;;;;21.56;42.93;102469.00;5008111;28;20034;-82
2022/10/07 10:57:16;;;;;;;8.25;4.75;;;;;;;21.75;41.76;102469.47;4991452;28;20030;-83
2022/10/07 10:59:48;;;;;;;9.88;5.30;;;;;;;21.74;41.61;102447.56;4989234;28;20103;-89
2022/10/07 11:02:33;;;;;;;8.25;4.55;;;;;;;21.92;40.72;102450.69;4979388;28;20069;-95
2022/10/07 11:05:20;;;;;;;15.52;5.13;;;;;;;21.90;41.35;102452.59;4991319;28;20049;-83
2022/10/07 11:07:47;;;;;;;11.25;5.43;;;;;;;21.92;40.57;102441.97;4990752;28;20030;-83
2022/10/07 11:10:43;;;;;;;12.80;6.65;;;;;;;21.80;41.19;102441.00;5006239;28;20027;-84
2022/10/07 11:13:14;;;;;;;12.88;6.10;;;;;;;21.89;40.41;102435.13;4990038;28;20050;-94
2022/10/07 11:15:58;;;;;;;36.80;16.63;;;;;;;21.87;40.75;102418.56;4998062;28;20042;-89
2022/10/07 11:18:45;;;;;;;12.00;6.32;;;;;;;21.95;40.89;102416.25;4991723;28;20113;-86
2022/10/07 11:21:16;;;;;;;8.90;4.80;;;;;;;22.02;40.71;102420.16;5002793;28;20030;-91
2022/10/07 11:23:52;;;;;;;12.63;5.68;;;;;;;22.16;39.85;102423.66;4957558;28;20054;-87
2022/10/07 11:26:25;;;;;;;8.48;4.88;;;;;;;22.05;39.73;102398.03;4977705;28;20041;-83
2022/10/07 11:28:51;;;;;;;8.95;4.97;;;;;;;22.01;39.76;102388.63;4954822;28;20101;-81
2022/10/07 11:31:22;;;;;;;12.32;6.00;;;;;;;22.17;39.63;102404.25;4951218;28;20457;-85
2022/10/07 11:34:29;;;;;;;18.30;7.70;;;;;;;22.02;39.83;102374.50;5002803;28;20033;-82
2022/10/07 11:37:07;;;;;;;8.77;5.20;;;;;;;22.20;39.60;102401.41;4978379;28;20050;-80
2022/10/07 11:39:35;;;;;;;10.85;5.47;;;;;;;22.04;39.51;102378.72;4991018;28;20026;-83
2022/10/07 11:42:05;;;;;;;9.55;5.03;;;;;;;22.10;39.85;102374.84;4984956;28;20069;-86
2022/10/07 11:44:34;;;;;;;10.45;4.95;;;;;;;22.08;39.80;102368.00;4970012;28;20384;-82
2022/10/07 11:47:01;;;;;;;7.30;3.92;;;;;;;22.20;38.99;102372.41;4978126;28;20034;-89
2022/10/07 11:49:31;;;;;;;6.93;4.00;;;;;;;22.12;38.98;102367.66;4956983;28;20026;-80
2022/10/07 11:52:02;;;;;;;7.43;4.03;;;;;;;22.04;38.72;102362.09;4989776;28;21526;-84
2022/10/07 11:54:30;;;;;;;7.70;4.85;;;;;;;21.94;38.67;102345.22;4973533;28;20038;-86
2022/10/07 11:56:59;;;;;;;7.63;4.65;;;;;;;21.95;38.63;102357.44;4973387;28;20403;-85
2022/10/07 11:59:46;;;;;;;8.15;4.13;;;;;;;21.93;39.33;102359.34;4973595;28;20081;-89
2022/10/07 12:02:35;;;;;;;8.02;3.92;;;;;;;21.92;38.88;102349.72;4963500;28;20129;-87
2022/10/07 12:05:01;;;;;;;8.27;4.20;;;;;;;21.96;38.89;102353.84;4987584;28;20041;-91
2022/10/07 12:07:42;;;;;;;8.95;4.03;;;;;;;21.97;39.37;102356.38;4962444;28;20027;-90
2022/10/07 12:10:23;;;;;;;6.57;3.55;;;;;;;22.09;37.54;102348.59;4977250;28;20109;-89
2022/10/07 12:12:50;;;;;;;8.65;4.28;;;;;;;21.96;37.31;102344.16;5005727;28;20026;-88
2022/10/07 12:15:21;;;;;;;7.55;4.15;;;;;;;21.94;38.42;102340.78;4990311;28;20038;-92
2022/10/07 12:18:03;;;;;;;8.60;4.00;;;;;;;22.00;39.25;102345.63;4992700;28;20038;-90
2022/10/07 12:20:34;;;;;;;7.43;4.13;;;;;;;22.03;38.99;102345.44;4989146;28;20058;-84
2022/10/07 12:23:35;;;;;;;9.93;4.40;;;;;;;22.04;38.64;102336.56;4990484;28;20023;-84
2022/10/07 12:26:02;;;;;;;8.52;4.40;;;;;;;21.97;38.65;102335.31;4971073;28;20038;-88
2022/10/07 12:28:46;;;;;;;12.77;4.15;;;;;;;22.05;38.41;102335.63;4993636;28;20137;-92
2022/10/07 12:31:14;;;;;;;8.50;4.05;;;;;;;22.03;38.48;102324.34;4992813;28;20408;-85
2022/10/07 12:33:57;;;;;;;7.93;4.25;;;;;;;22.00;39.34;102331.59;4993998;28;20030;-85
2022/10/07 12:36:26;;;;;;;19.02;7.97;;;;;;;21.92;39.58;102329.50;4990629;28;20093;-89
2022/10/07 12:38:55;;;;;;;11.35;4.50;;;;;;;21.86;38.88;102329.94;5007831;28;20483;-92
2022/10/07 12:41:26;;;;;;;8.35;4.55;;;;;;;21.95;39.78;102328.47;4986338;28;20049;-82
2022/10/07 12:44:03;;;;;;;8.02;4.32;;;;;;;22.04;39.83;102323.38;4993640;28;20492;-92
2022/10/07 12:46:40;;;;;;;8.55;4.25;;;;;;;21.92;40.15;102316.31;4971881;28;20596;-90
2022/10/07 12:49:13;;;;;;;7.88;3.97;;;;;;;21.99;40.57;102316.75;4977564;28;20145;-91
2022/10/07 12:51:39;;;;;;;9.73;4.30;;;;;;;21.82;39.99;102296.84;4961173;28;20038;-96
2022/10/07 12:54:30;;;;;;;5.70;3.80;;;;;;;21.86;40.33;102298.34;4957048;28;20116;-91
2022/10/07 12:56:56;;;;;;;11.18;4.40;;;;;;;22.00;40.08;102302.63;4984565;28;20043;-91
2022/10/07 12:59:46;;;;;;;7.00;4.20;;;;;;;21.95;40.13;102302.13;4966862;28;20029;-86
2022/10/07 13:02:42;;;;;;;8.75;3.95;;;;;;;22.00;40.27;102303.44;4981486;28;20133;-83
2022/10/07 13:05:38;;;;;;;7.55;3.70;;;;;;;21.90;40.50;102297.16;4993362;28;20026;-88
2022/10/07 13:08:26;;;;;;;6.53;3.65;;;;;;;21.65;40.20;102244.53;4988570;28;20035;-91
2022/10/07 13:11:32;;;;;;;9.18;4.13;;;;;;;21.99;39.83;102291.22;4976187;28;20033;-83
2022/10/07 13:14:42;;;;;;;8.38;3.97;;;;;;;21.91;40.35;102285.66;5002910;28;20568;-84
2022/10/07 13:17:16;;;;;;;7.00;3.42;;;;;;;21.96;40.76;102280.91;4953663;28;20077;-88
2022/10/07 13:20:12;;;;;;;9.10;3.95;;;;;;;21.85;40.43;102262.41;4962869;28;20459;-87
2022/10/07 13:22:43;;;;;;;6.45;3.25;;;;;;;21.93;40.26;102267.97;4951100;28;20189;-84
2022/10/07 13:25:10;;;;;;;5.90;3.67;;;;;;;21.95;40.45;102276.59;4956980;28;20070;-81
2022/10/07 13:27:37;;;;;;;7.57;3.65;;;;;;;21.91;40.10;102269.84;4956850;28;20070;-81
2022/10/07 13:30:04;;;;;;;5.15;3.05;;;;;;;21.86;40.58;102264.06;4974489;28;20025;-81
2022/10/07 13:32:33;;;;;;;7.80;3.85;;;;;;;21.99;40.80;102279.84;4975584;28;20085;-81
2022/10/07 13:35:00;;;;;;;9.25;4.28;;;;;;;21.97;40.41;102264.16;4971443;28;20031;-87
2022/10/07 13:37:36;;;;;;;6.82;3.22;;;;;;;22.05;40.32;102272.38;4984897;28;20117;-85
2022/10/07 13:40:34;;;;;;;7.07;3.20;;;;;;;22.07;40.72;102263.53;4990445;28;20061;-88
2022/10/07 13:43:06;;;;;;;7.90;3.60;;;;;;;21.97;40.35;102250.97;4984076;28;20035;-87
2022/10/07 13:45:39;;;;;;;7.55;4.05;;;;;;;22.01;40.49;102246.31;4959720;28;20033;-85
2022/10/07 13:48:05;;;;;;;7.22;3.33;;;;;;;22.11;40.64;102246.53;4974235;28;20073;-87
2022/10/07 13:50:31;;;;;;;8.27;3.67;;;;;;;21.92;40.68;102208.28;4957956;28;20014;-86
2022/10/07 13:52:56;;;;;;;8.00;3.65;;;;;;;22.15;40.81;102235.69;4991674;28;20481;-81
2022/10/07 13:55:27;;;;;;;10.40;3.78;;;;;;;22.20;40.47;102238.81;4991638;28;20492;-81
2022/10/07 13:57:56;;;;;;;11.57;4.40;;;;;;;22.26;40.18;102225.19;4991566;28;20026;-85
2022/10/07 14:00:23;;;;;;;12.57;3.22;;;;;;;22.15;40.39;102216.38;5006845;28;20417;-84
